sensor_id;sensor_type;location;lat;lon;timestamp;temperature;humidity
51884;DHT22;37915;53.254;6.598;2023-02-28T00:00:04;3.80;99.90
51884;DHT22;37915;53.254;6.598;2023-02-28T00:02:36;3.80;99.90
51884;DHT22;37915;53.254;6.598;2023-02-28T00:05:02;3.80;99.90
51884;DHT22;37915;53.254;6.598;2023-02-28T00:07:29;3.80;99.90
51884;DHT22;37915;53.254;6.598;2023-02-28T00:09:55;3.90;99.90
51884;DHT22;37915;53.254;6.598;2023-02-28T00:12:21;3.80;99.90
51884;DHT22;37915;53.254;6.598;2023-02-28T00:14:46;3.80;99.90
51884;DHT22;37915;53.254;6.598;2023-02-28T00:17:12;3.90;99.90
51884;DHT22;37915;53.254;6.598;2023-02-28T00:19:37;4.20;99.90
51884;DHT22;37915;53.254;6.598;2023-02-28T00:22:03;3.90;99.90
51884;DHT22;37915;53.254;6.598;2023-02-28T00:24:29;3.90;99.90
51884;DHT22;37915;53.254;6.598;2023-02-28T00:26:54;4.70;99.90
51884;DHT22;37915;53.254;6.598;2023-02-28T00:29:20;3.90;99.90
51884;DHT22;37915;53.254;6.598;2023-02-28T00:31:45;3.90;99.90
51884;DHT22;37915;53.254;6.598;2023-02-28T00:34:11;4.20;99.90
51884;DHT22;37915;53.254;6.598;2023-02-28T00:36:36;3.90;99.90
51884;DHT22;37915;53.254;6.598;2023-02-28T00:39:02;3.90;99.90
51884;DHT22;37915;53.254;6.598;2023-02-28T00:41:28;3.80;99.90
51884;DHT22;37915;53.254;6.598;2023-02-28T00:43:53;3.90;99.90
51884;DHT22;37915;53.254;6.598;2023-02-28T00:46:19;3.80;99.90
51884;DHT22;37915;53.254;6.598;2023-02-28T00:48:44;3.80;99.90
51884;DHT22;37915;53.254;6.598;2023-02-28T00:51:10;4.40;99.90
51884;DHT22;37915;53.254;6.598;2023-02-28T00:53:36;4.20;99.90
51884;DHT22;37915;53.254;6.598;2023-02-28T00:56:02;3.80;99.90
51884;DHT22;37915;53.254;6.598;2023-02-28T00:58:27;4.10;99.90
51884;DHT22;37915;53.254;6.598;2023-02-28T01:00:53;4.80;99.90
51884;DHT22;37915;53.254;6.598;2023-02-28T01:03:19;4.40;99.90
51884;DHT22;37915;53.254;6.598;2023-02-28T01:05:51;4.50;99.90
51884;DHT22;37915;53.254;6.598;2023-02-28T01:08:18;3.80;99.90
51884;DHT22;37915;53.254;6.598;2023-02-28T01:10:44;3.80;99.90
51884;DHT22;37915;53.254;6.598;2023-02-28T01:13:10;3.80;99.90
51884;DHT22;37915;53.254;6.598;2023-02-28T01:15:35;4.00;99.90
51884;DHT22;37915;53.254;6.598;2023-02-28T01:18:01;4.30;99.90
51884;DHT22;37915;53.254;6.598;2023-02-28T01:20:27;4.20;99.90
51884;DHT22;37915;53.254;6.598;2023-02-28T01:22:52;3.80;99.90
51884;DHT22;37915;53.254;6.598;2023-02-28T01:25:18;3.90;99.90
51884;DHT22;37915;53.254;6.598;2023-02-28T01:27:43;3.90;99.90
51884;DHT22;37915;53.254;6.598;2023-02-28T01:30:09;3.90;99.90
51884;DHT22;37915;53.254;6.598;2023-02-28T01:32:35;3.80;99.90
51884;DHT22;37915;53.254;6.598;2023-02-28T01:35:01;3.90;99.90
51884;DHT22;37915;53.254;6.598;2023-02-28T01:37:26;4.30;99.90
51884;DHT22;37915;53.254;6.598;2023-02-28T01:39:52;3.90;99.90
51884;DHT22;37915;53.254;6.598;2023-02-28T01:42:17;3.90;99.90
51884;DHT22;37915;53.254;6.598;2023-02-28T01:47:29;4.90;99.90
51884;DHT22;37915;53.254;6.598;2023-02-28T01:49:55;3.90;99.90
51884;DHT22;37915;53.254;6.598;2023-02-28T01:52:21;3.90;99.90
51884;DHT22;37915;53.254;6.598;2023-02-28T01:54:48;4.60;99.90
51884;DHT22;37915;53.254;6.598;2023-02-28T01:57:16;4.30;99.90
51884;DHT22;37915;53.254;6.598;2023-02-28T01:59:48;3.90;99.90
51884;DHT22;37915;53.254;6.598;2023-02-28T02:02:15;3.90;99.90
51884;DHT22;37915;53.254;6.598;2023-02-28T02:04:44;3.90;99.90
51884;DHT22;37915;53.254;6.598;2023-02-28T02:07:12;3.80;99.90
51884;DHT22;37915;53.254;6.598;2023-02-28T02:09:38;4.20;99.90
51884;DHT22;37915;53.254;6.598;2023-02-28T02:12:07;3.90;99.90
51884;DHT22;37915;53.254;6.598;2023-02-28T02:30:05;4.00;99.90
51884;DHT22;37915;53.254;6.598;2023-02-28T02:37:40;4.00;99.90
51884;DHT22;37915;53.254;6.598;2023-02-28T02:42:39;3.90;99.90
51884;DHT22;37915;53.254;6.598;2023-02-28T02:45:19;4.80;99.90
51884;DHT22;37915;53.254;6.598;2023-02-28T02:47:48;4.00;99.90
51884;DHT22;37915;53.254;6.598;2023-02-28T02:50:16;4.90;99.90
51884;DHT22;37915;53.254;6.598;2023-02-28T02:52:46;4.40;99.90
51884;DHT22;37915;53.254;6.598;2023-02-28T02:55:13;4.00;99.90
51884;DHT22;37915;53.254;6.598;2023-02-28T02:57:45;4.60;99.90
51884;DHT22;37915;53.254;6.598;2023-02-28T03:00:11;4.00;99.90
51884;DHT22;37915;53.254;6.598;2023-02-28T03:02:37;4.00;99.90
51884;DHT22;37915;53.254;6.598;2023-02-28T03:05:23;4.00;99.90
51884;DHT22;37915;53.254;6.598;2023-02-28T03:07:50;4.00;99.90
51884;DHT22;37915;53.254;6.598;2023-02-28T03:13:04;4.00;99.90
51884;DHT22;37915;53.254;6.598;2023-02-28T03:18:40;4.00;99.90
51884;DHT22;37915;53.254;6.598;2023-02-28T03:24:10;4.10;99.90
51884;DHT22;37915;53.254;6.598;2023-02-28T03:26:39;4.10;99.90
51884;DHT22;37915;53.254;6.598;2023-02-28T03:31:42;4.10;99.90
51884;DHT22;37915;53.254;6.598;2023-02-28T03:36:37;4.80;99.90
51884;DHT22;37915;53.254;6.598;2023-02-28T03:39:11;4.00;99.90
51884;DHT22;37915;53.254;6.598;2023-02-28T03:41:45;4.00;99.90
51884;DHT22;37915;53.254;6.598;2023-02-28T03:44:14;4.00;99.90
51884;DHT22;37915;53.254;6.598;2023-02-28T03:46:42;4.60;99.90
51884;DHT22;37915;53.254;6.598;2023-02-28T03:49:13;4.90;99.90
51884;DHT22;37915;53.254;6.598;2023-02-28T03:51:41;3.90;99.90
51884;DHT22;37915;53.254;6.598;2023-02-28T03:54:08;3.90;99.90
51884;DHT22;37915;53.254;6.598;2023-02-28T03:56:39;4.10;99.90
51884;DHT22;37915;53.254;6.598;2023-02-28T04:04:00;3.70;99.90
51884;DHT22;37915;53.254;6.598;2023-02-28T04:06:26;4.30;99.90
51884;DHT22;37915;53.254;6.598;2023-02-28T04:08:52;3.60;99.90
51884;DHT22;37915;53.254;6.598;2023-02-28T04:11:30;3.60;99.90
51884;DHT22;37915;53.254;6.598;2023-02-28T04:13:57;3.50;99.90
51884;DHT22;37915;53.254;6.598;2023-02-28T04:16:23;4.70;99.90
51884;DHT22;37915;53.254;6.598;2023-02-28T04:18:48;3.50;99.90
51884;DHT22;37915;53.254;6.598;2023-02-28T04:21:14;3.50;99.90
51884;DHT22;37915;53.254;6.598;2023-02-28T04:23:40;3.50;99.90
51884;DHT22;37915;53.254;6.598;2023-02-28T04:26:05;3.90;99.90
51884;DHT22;37915;53.254;6.598;2023-02-28T04:28:31;3.50;99.90
51884;DHT22;37915;53.254;6.598;2023-02-28T04:30:58;3.50;99.90
51884;DHT22;37915;53.254;6.598;2023-02-28T04:33:24;3.50;99.90
51884;DHT22;37915;53.254;6.598;2023-02-28T04:35:59;3.50;99.90
51884;DHT22;37915;53.254;6.598;2023-02-28T04:38:25;3.40;99.90
51884;DHT22;37915;53.254;6.598;2023-02-28T04:40:50;4.50;99.90
51884;DHT22;37915;53.254;6.598;2023-02-28T04:43:16;3.40;99.90
51884;DHT22;37915;53.254;6.598;2023-02-28T04:45:42;3.40;99.90
51884;DHT22;37915;53.254;6.598;2023-02-28T04:48:07;3.40;99.90
51884;DHT22;37915;53.254;6.598;2023-02-28T04:50:33;3.40;99.90
51884;DHT22;37915;53.254;6.598;2023-02-28T04:52:59;3.90;99.90
51884;DHT22;37915;53.254;6.598;2023-02-28T04:55:24;3.40;99.90
51884;DHT22;37915;53.254;6.598;2023-02-28T04:57:50;3.50;99.90
51884;DHT22;37915;53.254;6.598;2023-02-28T05:00:15;3.30;99.90
51884;DHT22;37915;53.254;6.598;2023-02-28T05:02:42;3.30;99.90
51884;DHT22;37915;53.254;6.598;2023-02-28T05:05:07;3.30;99.90
51884;DHT22;37915;53.254;6.598;2023-02-28T05:07:33;3.20;99.90
51884;DHT22;37915;53.254;6.598;2023-02-28T05:09:58;3.20;99.90
51884;DHT22;37915;53.254;6.598;2023-02-28T05:12:24;3.20;99.90
51884;DHT22;37915;53.254;6.598;2023-02-28T05:14:50;3.20;99.90
51884;DHT22;37915;53.254;6.598;2023-02-28T05:17:15;3.60;99.90
51884;DHT22;37915;53.254;6.598;2023-02-28T05:19:42;3.20;99.90
51884;DHT22;37915;53.254;6.598;2023-02-28T05:22:12;3.20;99.90
51884;DHT22;37915;53.254;6.598;2023-02-28T05:24:38;3.20;99.90
51884;DHT22;37915;53.254;6.598;2023-02-28T05:27:04;3.80;99.90
51884;DHT22;37915;53.254;6.598;2023-02-28T05:29:29;3.30;99.90
51884;DHT22;37915;53.254;6.598;2023-02-28T05:31:55;3.10;99.90
51884;DHT22;37915;53.254;6.598;2023-02-28T05:34:20;3.10;99.90
51884;DHT22;37915;53.254;6.598;2023-02-28T05:36:46;3.10;99.90
51884;DHT22;37915;53.254;6.598;2023-02-28T05:39:11;3.40;99.90
51884;DHT22;37915;53.254;6.598;2023-02-28T05:41:38;3.50;99.90
51884;DHT22;37915;53.254;6.598;2023-02-28T05:44:04;3.90;99.90
51884;DHT22;37915;53.254;6.598;2023-02-28T05:46:29;3.00;99.90
51884;DHT22;37915;53.254;6.598;2023-02-28T05:48:55;3.80;99.90
51884;DHT22;37915;53.254;6.598;2023-02-28T05:51:23;3.80;99.90
51884;DHT22;37915;53.254;6.598;2023-02-28T05:53:48;3.80;99.90
51884;DHT22;37915;53.254;6.598;2023-02-28T05:56:14;3.00;99.90
51884;DHT22;37915;53.254;6.598;2023-02-28T05:58:40;3.00;99.90
51884;DHT22;37915;53.254;6.598;2023-02-28T06:03:50;3.00;99.90
51884;DHT22;37915;53.254;6.598;2023-02-28T06:06:15;3.00;99.90
51884;DHT22;37915;53.254;6.598;2023-02-28T06:08:41;3.00;99.90
51884;DHT22;37915;53.254;6.598;2023-02-28T06:11:08;3.90;99.90
51884;DHT22;37915;53.254;6.598;2023-02-28T06:13:34;4.00;99.90
51884;DHT22;37915;53.254;6.598;2023-02-28T06:16:02;3.30;99.90
51884;DHT22;37915;53.254;6.598;2023-02-28T06:18:28;2.90;99.90
51884;DHT22;37915;53.254;6.598;2023-02-28T06:20:54;3.80;99.90
51884;DHT22;37915;53.254;6.598;2023-02-28T06:23:20;2.90;99.90
51884;DHT22;37915;53.254;6.598;2023-02-28T06:25:46;2.90;99.90
51884;DHT22;37915;53.254;6.598;2023-02-28T06:28:11;3.80;99.90
51884;DHT22;37915;53.254;6.598;2023-02-28T06:30:37;2.90;99.90
51884;DHT22;37915;53.254;6.598;2023-02-28T06:33:03;3.50;99.90
51884;DHT22;37915;53.254;6.598;2023-02-28T06:35:29;2.90;99.90
51884;DHT22;37915;53.254;6.598;2023-02-28T06:37:54;2.80;99.90
51884;DHT22;37915;53.254;6.598;2023-02-28T06:40:20;3.40;99.90
51884;DHT22;37915;53.254;6.598;2023-02-28T06:42:46;2.90;99.90
51884;DHT22;37915;53.254;6.598;2023-02-28T06:45:11;2.90;99.90
51884;DHT22;37915;53.254;6.598;2023-02-28T06:47:38;2.90;99.90
51884;DHT22;37915;53.254;6.598;2023-02-28T06:50:04;3.40;99.90
51884;DHT22;37915;53.254;6.598;2023-02-28T06:52:30;2.90;99.90
51884;DHT22;37915;53.254;6.598;2023-02-28T06:54:55;2.90;99.90
51884;DHT22;37915;53.254;6.598;2023-02-28T06:57:29;3.00;99.90
51884;DHT22;37915;53.254;6.598;2023-02-28T06:59:58;2.80;99.90
51884;DHT22;37915;53.254;6.598;2023-02-28T07:02:24;2.80;99.90
51884;DHT22;37915;53.254;6.598;2023-02-28T07:04:50;2.90;99.90
51884;DHT22;37915;53.254;6.598;2023-02-28T07:07:15;2.70;99.90
51884;DHT22;37915;53.254;6.598;2023-02-28T07:09:41;2.70;99.90
51884;DHT22;37915;53.254;6.598;2023-02-28T07:12:06;3.90;99.90
51884;DHT22;37915;53.254;6.598;2023-02-28T07:14:32;2.60;99.90
51884;DHT22;37915;53.254;6.598;2023-02-28T07:16:57;2.60;99.90
51884;DHT22;37915;53.254;6.598;2023-02-28T07:19:23;2.60;99.90
51884;DHT22;37915;53.254;6.598;2023-02-28T07:21:48;3.30;99.90
51884;DHT22;37915;53.254;6.598;2023-02-28T07:24:14;2.60;99.90
51884;DHT22;37915;53.254;6.598;2023-02-28T07:26:41;2.60;99.90
51884;DHT22;37915;53.254;6.598;2023-02-28T07:29:07;2.70;99.90
51884;DHT22;37915;53.254;6.598;2023-02-28T07:31:32;2.80;99.90
51884;DHT22;37915;53.254;6.598;2023-02-28T07:33:58;2.70;99.90
51884;DHT22;37915;53.254;6.598;2023-02-28T07:36:23;2.70;99.90
51884;DHT22;37915;53.254;6.598;2023-02-28T07:38:49;3.10;99.90
51884;DHT22;37915;53.254;6.598;2023-02-28T07:41:19;3.50;99.90
51884;DHT22;37915;53.254;6.598;2023-02-28T07:43:46;2.80;99.90
51884;DHT22;37915;53.254;6.598;2023-02-28T07:46:13;3.40;99.90
51884;DHT22;37915;53.254;6.598;2023-02-28T07:48:40;2.80;99.90
51884;DHT22;37915;53.254;6.598;2023-02-28T07:51:06;3.50;99.90
51884;DHT22;37915;53.254;6.598;2023-02-28T07:53:32;2.80;99.90
51884;DHT22;37915;53.254;6.598;2023-02-28T07:55:58;2.80;99.90
51884;DHT22;37915;53.254;6.598;2023-02-28T07:58:24;2.80;99.90
51884;DHT22;37915;53.254;6.598;2023-02-28T08:00:50;3.10;99.90
51884;DHT22;37915;53.254;6.598;2023-02-28T08:03:16;3.80;99.90
51884;DHT22;37915;53.254;6.598;2023-02-28T08:05:42;2.80;99.90
51884;DHT22;37915;53.254;6.598;2023-02-28T08:08:08;3.70;99.90
51884;DHT22;37915;53.254;6.598;2023-02-28T08:10:33;2.80;99.90
51884;DHT22;37915;53.254;6.598;2023-02-28T08:12:59;2.80;99.90
51884;DHT22;37915;53.254;6.598;2023-02-28T08:15:25;3.60;99.90
51884;DHT22;37915;53.254;6.598;2023-02-28T08:17:51;4.20;99.90
51884;DHT22;37915;53.254;6.598;2023-02-28T08:20:16;3.00;99.90
51884;DHT22;37915;53.254;6.598;2023-02-28T08:22:42;3.90;99.90
51884;DHT22;37915;53.254;6.598;2023-02-28T08:25:08;3.10;99.90
51884;DHT22;37915;53.254;6.598;2023-02-28T08:27:34;3.00;99.90
51884;DHT22;37915;53.254;6.598;2023-02-28T08:29:59;3.00;99.90
51884;DHT22;37915;53.254;6.598;2023-02-28T08:32:25;4.60;99.90
51884;DHT22;37915;53.254;6.598;2023-02-28T08:34:51;3.30;99.90
51884;DHT22;37915;53.254;6.598;2023-02-28T08:37:16;4.40;99.90
51884;DHT22;37915;53.254;6.598;2023-02-28T08:39:42;3.60;99.90
51884;DHT22;37915;53.254;6.598;2023-02-28T08:42:07;3.40;99.90
51884;DHT22;37915;53.254;6.598;2023-02-28T08:44:33;3.50;99.90
51884;DHT22;37915;53.254;6.598;2023-02-28T08:46:59;3.60;99.90
51884;DHT22;37915;53.254;6.598;2023-02-28T08:49:24;3.70;99.90
51884;DHT22;37915;53.254;6.598;2023-02-28T08:51:50;4.40;99.90
51884;DHT22;37915;53.254;6.598;2023-02-28T08:54:15;3.90;99.90
51884;DHT22;37915;53.254;6.598;2023-02-28T08:56:45;4.20;99.90
51884;DHT22;37915;53.254;6.598;2023-02-28T08:59:10;4.00;99.90
51884;DHT22;37915;53.254;6.598;2023-02-28T09:01:36;4.10;99.90
51884;DHT22;37915;53.254;6.598;2023-02-28T09:04:02;4.10;99.90
51884;DHT22;37915;53.254;6.598;2023-02-28T09:06:27;4.30;99.90
51884;DHT22;37915;53.254;6.598;2023-02-28T09:08:55;4.30;99.90
51884;DHT22;37915;53.254;6.598;2023-02-28T09:11:23;4.20;99.90
51884;DHT22;37915;53.254;6.598;2023-02-28T09:13:49;4.60;99.90
51884;DHT22;37915;53.254;6.598;2023-02-28T09:16:15;4.30;99.90
51884;DHT22;37915;53.254;6.598;2023-02-28T09:18:41;4.30;99.90
51884;DHT22;37915;53.254;6.598;2023-02-28T09:21:08;4.40;99.90
51884;DHT22;37915;53.254;6.598;2023-02-28T09:23:34;4.40;99.90
51884;DHT22;37915;53.254;6.598;2023-02-28T09:26:00;4.40;99.90
51884;DHT22;37915;53.254;6.598;2023-02-28T09:28:26;4.50;99.90
51884;DHT22;37915;53.254;6.598;2023-02-28T09:30:53;4.60;99.90
51884;DHT22;37915;53.254;6.598;2023-02-28T09:33:19;4.60;99.90
51884;DHT22;37915;53.254;6.598;2023-02-28T09:35:49;4.70;99.90
51884;DHT22;37915;53.254;6.598;2023-02-28T09:38:15;4.70;99.90
51884;DHT22;37915;53.254;6.598;2023-02-28T09:40:51;4.90;99.90
51884;DHT22;37915;53.254;6.598;2023-02-28T09:43:18;4.90;99.90
51884;DHT22;37915;53.254;6.598;2023-02-28T09:46:02;5.20;99.90
51884;DHT22;37915;53.254;6.598;2023-02-28T09:48:35;5.20;99.90
51884;DHT22;37915;53.254;6.598;2023-02-28T09:51:03;5.30;99.90
51884;DHT22;37915;53.254;6.598;2023-02-28T09:53:33;5.30;99.90
51884;DHT22;37915;53.254;6.598;2023-02-28T09:56:01;5.30;99.90
51884;DHT22;37915;53.254;6.598;2023-02-28T09:58:30;5.30;99.90
51884;DHT22;37915;53.254;6.598;2023-02-28T10:01:03;5.50;99.90
51884;DHT22;37915;53.254;6.598;2023-02-28T10:03:40;5.40;99.90
51884;DHT22;37915;53.254;6.598;2023-02-28T10:11:09;6.00;99.90
51884;DHT22;37915;53.254;6.598;2023-02-28T10:13:37;5.70;99.90
51884;DHT22;37915;53.254;6.598;2023-02-28T10:16:07;6.00;99.90
51884;DHT22;37915;53.254;6.598;2023-02-28T10:18:56;5.80;99.90
51884;DHT22;37915;53.254;6.598;2023-02-28T10:22:05;5.90;99.90
51884;DHT22;37915;53.254;6.598;2023-02-28T10:26:37;6.10;99.90
51884;DHT22;37915;53.254;6.598;2023-02-28T10:29:02;6.20;99.90
51884;DHT22;37915;53.254;6.598;2023-02-28T10:31:28;6.20;99.90
51884;DHT22;37915;53.254;6.598;2023-02-28T10:33:54;6.30;99.90
51884;DHT22;37915;53.254;6.598;2023-02-28T10:36:20;6.30;99.90
51884;DHT22;37915;53.254;6.598;2023-02-28T10:38:46;6.40;99.90
51884;DHT22;37915;53.254;6.598;2023-02-28T10:41:16;6.60;99.90
51884;DHT22;37915;53.254;6.598;2023-02-28T10:43:43;7.00;99.90
51884;DHT22;37915;53.254;6.598;2023-02-28T10:51:01;8.10;99.90
51884;DHT22;37915;53.254;6.598;2023-02-28T10:53:33;8.30;99.90
51884;DHT22;37915;53.254;6.598;2023-02-28T10:56:04;8.30;99.90
51884;DHT22;37915;53.254;6.598;2023-02-28T11:01:19;7.80;99.90
51884;DHT22;37915;53.254;6.598;2023-02-28T11:03:45;7.80;99.90
51884;DHT22;37915;53.254;6.598;2023-02-28T11:06:19;7.50;99.90
51884;DHT22;37915;53.254;6.598;2023-02-28T11:08:50;7.40;99.90
51884;DHT22;37915;53.254;6.598;2023-02-28T11:11:16;7.40;99.90
51884;DHT22;37915;53.254;6.598;2023-02-28T11:13:43;7.50;99.90
51884;DHT22;37915;53.254;6.598;2023-02-28T11:16:10;7.40;99.90
51884;DHT22;37915;53.254;6.598;2023-02-28T11:18:53;7.20;99.90
51884;DHT22;37915;53.254;6.598;2023-02-28T11:21:32;7.10;99.90
51884;DHT22;37915;53.254;6.598;2023-02-28T11:24:07;6.90;99.90
51884;DHT22;37915;53.254;6.598;2023-02-28T11:26:46;6.80;99.90
51884;DHT22;37915;53.254;6.598;2023-02-28T11:29:18;6.70;99.90
51884;DHT22;37915;53.254;6.598;2023-02-28T11:34:29;6.60;99.90
51884;DHT22;37915;53.254;6.598;2023-02-28T11:36:55;6.60;99.90
51884;DHT22;37915;53.254;6.598;2023-02-28T11:39:22;6.60;99.90
51884;DHT22;37915;53.254;6.598;2023-02-28T11:47:25;6.50;99.90
51884;DHT22;37915;53.254;6.598;2023-02-28T11:52:20;6.40;99.90
51884;DHT22;37915;53.254;6.598;2023-02-28T11:57:50;6.40;99.90
51884;DHT22;37915;53.254;6.598;2023-02-28T12:00:30;6.40;99.90
51884;DHT22;37915;53.254;6.598;2023-02-28T12:03:16;6.30;99.90
51884;DHT22;37915;53.254;6.598;2023-02-28T12:05:58;6.30;99.90
51884;DHT22;37915;53.254;6.598;2023-02-28T12:11:03;6.20;99.90
51884;DHT22;37915;53.254;6.598;2023-02-28T12:21:11;6.40;99.90
51884;DHT22;37915;53.254;6.598;2023-02-28T12:23:47;6.40;99.90
51884;DHT22;37915;53.254;6.598;2023-02-28T12:26:30;6.50;99.90
51884;DHT22;37915;53.254;6.598;2023-02-28T12:28:59;6.60;99.90
51884;DHT22;37915;53.254;6.598;2023-02-28T12:31:27;6.70;99.90
51884;DHT22;37915;53.254;6.598;2023-02-28T12:33:56;6.80;99.90
51884;DHT22;37915;53.254;6.598;2023-02-28T12:36:24;6.80;99.90
51884;DHT22;37915;53.254;6.598;2023-02-28T12:38:53;6.90;99.90
51884;DHT22;37915;53.254;6.598;2023-02-28T12:41:22;7.00;99.90
51884;DHT22;37915;53.254;6.598;2023-02-28T12:43:51;5.80;99.90
51884;DHT22;37915;53.254;6.598;2023-02-28T12:46:22;7.00;99.90
51884;DHT22;37915;53.254;6.598;2023-02-28T12:48:52;7.00;99.90
51884;DHT22;37915;53.254;6.598;2023-02-28T12:51:18;7.10;99.90
51884;DHT22;37915;53.254;6.598;2023-02-28T12:58:47;7.20;99.90
51884;DHT22;37915;53.254;6.598;2023-02-28T13:01:22;7.20;99.90
51884;DHT22;37915;53.254;6.598;2023-02-28T13:06:34;7.20;99.90
51884;DHT22;37915;53.254;6.598;2023-02-28T13:09:11;7.20;99.90
51884;DHT22;37915;53.254;6.598;2023-02-28T13:14:03;7.20;99.90
51884;DHT22;37915;53.254;6.598;2023-02-28T13:16:50;7.20;99.90
51884;DHT22;37915;53.254;6.598;2023-02-28T13:19:17;7.20;99.90
51884;DHT22;37915;53.254;6.598;2023-02-28T13:21:43;7.20;99.90
51884;DHT22;37915;53.254;6.598;2023-02-28T13:24:10;7.20;99.90
51884;DHT22;37915;53.254;6.598;2023-02-28T13:29:02;7.10;99.90
51884;DHT22;37915;53.254;6.598;2023-02-28T13:31:29;7.10;99.90
51884;DHT22;37915;53.254;6.598;2023-02-28T13:38:59;7.30;99.90
51884;DHT22;37915;53.254;6.598;2023-02-28T13:46:34;7.50;99.90
51884;DHT22;37915;53.254;6.598;2023-02-28T14:02:29;7.40;99.90
51884;DHT22;37915;53.254;6.598;2023-02-28T14:05:06;7.20;99.90
51884;DHT22;37915;53.254;6.598;2023-02-28T14:10:18;6.90;99.90
51884;DHT22;37915;53.254;6.598;2023-02-28T14:13:00;6.80;99.90
51884;DHT22;37915;53.254;6.598;2023-02-28T14:18:00;6.80;99.90
51884;DHT22;37915;53.254;6.598;2023-02-28T14:20:27;7.20;99.90
51884;DHT22;37915;53.254;6.598;2023-02-28T14:31:12;7.50;99.90
51884;DHT22;37915;53.254;6.598;2023-02-28T14:36:38;7.70;99.90
51884;DHT22;37915;53.254;6.598;2023-02-28T14:38:57;7.80;99.90
51884;DHT22;37915;53.254;6.598;2023-02-28T14:43:53;7.90;99.90
51884;DHT22;37915;53.254;6.598;2023-02-28T14:46:19;8.00;99.90
51884;DHT22;37915;53.254;6.598;2023-02-28T14:48:46;8.10;99.90
51884;DHT22;37915;53.254;6.598;2023-02-28T14:51:11;8.20;99.90
51884;DHT22;37915;53.254;6.598;2023-02-28T14:53:37;8.20;99.90
51884;DHT22;37915;53.254;6.598;2023-02-28T14:56:03;8.20;99.90
51884;DHT22;37915;53.254;6.598;2023-02-28T14:58:29;8.10;99.90
51884;DHT22;37915;53.254;6.598;2023-02-28T15:00:56;8.10;99.90
51884;DHT22;37915;53.254;6.598;2023-02-28T15:03:24;8.10;99.90
51884;DHT22;37915;53.254;6.598;2023-02-28T15:05:57;8.00;99.90
51884;DHT22;37915;53.254;6.598;2023-02-28T15:08:23;8.00;99.90
51884;DHT22;37915;53.254;6.598;2023-02-28T15:13:15;8.10;99.90
51884;DHT22;37915;53.254;6.598;2023-02-28T15:20:47;8.00;99.90
51884;DHT22;37915;53.254;6.598;2023-02-28T15:23:12;8.00;99.90
51884;DHT22;37915;53.254;6.598;2023-02-28T15:25:39;7.80;99.90
51884;DHT22;37915;53.254;6.598;2023-02-28T15:28:09;7.80;99.90
51884;DHT22;37915;53.254;6.598;2023-02-28T15:30:37;7.60;99.90
51884;DHT22;37915;53.254;6.598;2023-02-28T15:33:19;7.60;99.90
51884;DHT22;37915;53.254;6.598;2023-02-28T15:35:45;7.50;99.90
51884;DHT22;37915;53.254;6.598;2023-02-28T15:40:41;7.30;99.90
51884;DHT22;37915;53.254;6.598;2023-02-28T15:43:14;7.20;99.90
51884;DHT22;37915;53.254;6.598;2023-02-28T15:45:47;7.10;99.90
51884;DHT22;37915;53.254;6.598;2023-02-28T15:53:43;6.90;99.90
51884;DHT22;37915;53.254;6.598;2023-02-28T15:58:58;6.70;99.90
51884;DHT22;37915;53.254;6.598;2023-02-28T16:01:26;6.60;99.90
51884;DHT22;37915;53.254;6.598;2023-02-28T16:03:54;6.50;99.90
51884;DHT22;37915;53.254;6.598;2023-02-28T16:06:33;6.40;99.90
51884;DHT22;37915;53.254;6.598;2023-02-28T16:08:59;6.00;99.90
51884;DHT22;37915;53.254;6.598;2023-02-28T16:11:25;6.20;99.90
51884;DHT22;37915;53.254;6.598;2023-02-28T16:13:51;6.20;99.90
51884;DHT22;37915;53.254;6.598;2023-02-28T16:16:18;6.10;99.90
51884;DHT22;37915;53.254;6.598;2023-02-28T16:18:44;6.00;99.90
51884;DHT22;37915;53.254;6.598;2023-02-28T16:21:10;6.00;99.90
51884;DHT22;37915;53.254;6.598;2023-02-28T16:23:35;5.90;99.90
51884;DHT22;37915;53.254;6.598;2023-02-28T16:26:02;5.80;99.90
51884;DHT22;37915;53.254;6.598;2023-02-28T16:28:29;5.60;99.90
51884;DHT22;37915;53.254;6.598;2023-02-28T16:30:56;5.70;99.90
51884;DHT22;37915;53.254;6.598;2023-02-28T16:33:22;5.60;99.90
51884;DHT22;37915;53.254;6.598;2023-02-28T16:35:47;5.90;99.90
51884;DHT22;37915;53.254;6.598;2023-02-28T16:38:13;5.60;99.90
51884;DHT22;37915;53.254;6.598;2023-02-28T16:40:39;5.50;99.90
51884;DHT22;37915;53.254;6.598;2023-02-28T16:43:06;5.50;99.90
51884;DHT22;37915;53.254;6.598;2023-02-28T16:45:32;5.50;99.90
51884;DHT22;37915;53.254;6.598;2023-02-28T16:47:58;5.40;99.90
51884;DHT22;37915;53.254;6.598;2023-02-28T16:50:29;5.30;99.90
51884;DHT22;37915;53.254;6.598;2023-02-28T16:52:55;5.50;99.90
51884;DHT22;37915;53.254;6.598;2023-02-28T16:55:22;5.20;99.90
51884;DHT22;37915;53.254;6.598;2023-02-28T16:57:51;5.10;99.90
51884;DHT22;37915;53.254;6.598;2023-02-28T17:00:17;5.10;99.90
51884;DHT22;37915;53.254;6.598;2023-02-28T17:02:43;5.00;99.90
51884;DHT22;37915;53.254;6.598;2023-02-28T17:05:10;5.30;99.90
51884;DHT22;37915;53.254;6.598;2023-02-28T17:07:36;4.80;99.90
51884;DHT22;37915;53.254;6.598;2023-02-28T17:10:02;4.70;99.90
51884;DHT22;37915;53.254;6.598;2023-02-28T17:12:33;4.70;99.90
51884;DHT22;37915;53.254;6.598;2023-02-28T17:14:59;4.60;99.90
51884;DHT22;37915;53.254;6.598;2023-02-28T17:17:25;5.10;99.90
51884;DHT22;37915;53.254;6.598;2023-02-28T17:19:50;5.00;99.90
51884;DHT22;37915;53.254;6.598;2023-02-28T17:22:16;5.00;99.90
51884;DHT22;37915;53.254;6.598;2023-02-28T17:24:41;4.30;99.90
51884;DHT22;37915;53.254;6.598;2023-02-28T17:27:09;4.50;99.90
51884;DHT22;37915;53.254;6.598;2023-02-28T17:29:36;4.40;99.90
51884;DHT22;37915;53.254;6.598;2023-02-28T17:32:02;4.10;99.90
51884;DHT22;37915;53.254;6.598;2023-02-28T17:34:28;4.10;99.90
51884;DHT22;37915;53.254;6.598;2023-02-28T17:36:53;4.10;99.90
51884;DHT22;37915;53.254;6.598;2023-02-28T17:39:19;5.00;99.90
51884;DHT22;37915;53.254;6.598;2023-02-28T17:41:51;4.70;99.90
51884;DHT22;37915;53.254;6.598;2023-02-28T17:44:17;3.90;99.90
51884;DHT22;37915;53.254;6.598;2023-02-28T17:51:35;3.80;99.90
51884;DHT22;37915;53.254;6.598;2023-02-28T17:54:00;3.50;99.90
51884;DHT22;37915;53.254;6.598;2023-02-28T18:03:45;4.50;99.90
51884;DHT22;37915;53.254;6.598;2023-02-28T18:06:19;3.20;99.90
51884;DHT22;37915;53.254;6.598;2023-02-28T18:08:46;3.20;99.90
51884;DHT22;37915;53.254;6.598;2023-02-28T18:11:11;3.10;99.90
51884;DHT22;37915;53.254;6.598;2023-02-28T18:13:43;3.10;99.90
51884;DHT22;37915;53.254;6.598;2023-02-28T18:16:08;3.00;99.90
51884;DHT22;37915;53.254;6.598;2023-02-28T18:18:34;3.00;99.90
51884;DHT22;37915;53.254;6.598;2023-02-28T18:21:03;3.10;99.90
51884;DHT22;37915;53.254;6.598;2023-02-28T18:23:29;3.50;99.90
51884;DHT22;37915;53.254;6.598;2023-02-28T18:25:55;2.80;99.90
51884;DHT22;37915;53.254;6.598;2023-02-28T18:28:20;2.70;99.90
51884;DHT22;37915;53.254;6.598;2023-02-28T18:30:46;3.50;99.90
51884;DHT22;37915;53.254;6.598;2023-02-28T18:33:11;2.90;99.90
51884;DHT22;37915;53.254;6.598;2023-02-28T18:35:37;2.70;99.90
51884;DHT22;37915;53.254;6.598;2023-02-28T18:38:07;3.70;99.90